Time;durP1;ratioP1;P1;durP2;ratioP2;P2;SDS_P1;SDS_P2;PMS_P1;PMS_P2;Temp;Humidity;BMP_temperature;BMP_pressure;BME280_temperature;BME280_humidity;BME280_pressure;Samples;Min_cycle;Max_cycle;Signal;HPM_P1;HPM_P2
2022/03/14 00:02:14;;;;;;;23.43;14.57;;;8.40;90.80;;;;;;5116203;27;20106;-78
2022/03/14 00:04:40;;;;;;;25.63;14.17;;;8.50;90.80;;;;;;5101003;27;20046;-79
2022/03/14 00:07:06;;;;;;;20.43;12.27;;;8.50;91.00;;;;;;5118848;27;20046;-79
2022/03/14 00:09:32;;;;;;;16.83;12.43;;;8.70;91.10;;;;;;5111867;27;20053;-78
2022/03/14 00:11:58;;;;;;;21.47;13.47;;;8.80;91.10;;;;;;5101261;27;20047;-79
2022/03/14 00:14:28;;;;;;;20.50;14.07;;;8.90;91.70;;;;;;5080256;27;20035;-79
2022/03/14 00:16:56;;;;;;;20.60;13.57;;;8.80;92.20;;;;;;5118914;27;20039;-79
2022/03/14 00:19:22;;;;;;;22.50;13.97;;;8.90;92.70;;;;;;5100429;27;20034;-78
2022/03/14 00:21:49;;;;;;;21.00;13.63;;;8.90;93.40;;;;;;5104893;27;20505;-79
2022/03/14 00:24:15;;;;;;;19.73;13.37;;;8.90;94.60;;;;;;5119716;27;20043;-78
2022/03/14 00:26:41;;;;;;;19.77;12.80;;;8.90;95.40;;;;;;5100528;27;20058;-78
2022/03/14 00:29:08;;;;;;;22.27;12.63;;;8.90;96.00;;;;;;5082996;27;20035;-78
2022/03/14 00:31:34;;;;;;;20.17;12.03;;;8.90;96.70;;;;;;5118671;27;20110;-78
2022/03/14 00:34:00;;;;;;;19.03;11.53;;;8.90;98.30;;;;;;5100401;27;20082;-78
2022/03/14 00:36:25;;;;;;;17.70;12.03;;;8.90;99.60;;;;;;5118603;27;21073;-79
2022/03/14 00:38:53;;;;;;;19.77;11.53;;;8.90;99.90;;;;;;5117544;27;20042;-78
2022/03/14 00:41:18;;;;;;;17.10;11.17;;;8.90;99.90;;;;;;5117344;27;20183;-79
2022/03/14 00:43:45;;;;;;;16.60;11.33;;;8.90;99.90;;;;;;5099871;27;20151;-79
2022/03/14 00:46:11;;;;;;;15.57;10.33;;;8.90;99.90;;;;;;5117221;27;20058;-79
2022/03/14 00:48:37;;;;;;;13.37;8.93;;;8.80;99.90;;;;;;5118472;27;20050;-78
2022/03/14 00:51:05;;;;;;;14.83;9.47;;;8.90;99.90;;;;;;5120928;27;20059;-79
2022/03/14 00:53:31;;;;;;;13.47;9.07;;;8.90;99.90;;;;;;5136592;27;20039;-79
2022/03/14 00:55:59;;;;;;;12.93;8.20;;;8.90;99.90;;;;;;5136879;27;20038;-79
2022/03/14 00:58:26;;;;;;;12.70;8.47;;;9.00;99.90;;;;;;5135029;27;20441;-79
2022/03/14 01:00:52;;;;;;;11.57;7.83;;;9.00;99.90;;;;;;5116185;27;20058;-80
2022/03/14 01:03:17;;;;;;;12.23;8.23;;;9.10;99.90;;;;;;5119270;27;20115;-78
2022/03/14 01:05:43;;;;;;;12.63;8.13;;;9.10;99.90;;;;;;5097798;27;20130;-78
2022/03/14 01:08:09;;;;;;;11.17;7.37;;;9.20;99.90;;;;;;5136005;27;20232;-79
2022/03/14 01:10:35;;;;;;;11.67;7.57;;;9.20;99.90;;;;;;5134608;27;20046;-79
2022/03/14 01:13:02;;;;;;;12.50;7.37;;;9.20;99.90;;;;;;5121745;27;20057;-78
2022/03/14 01:15:29;;;;;;;11.53;6.73;;;9.30;99.90;;;;;;5117973;27;20067;-79
2022/03/14 01:17:56;;;;;;;9.13;6.60;;;9.30;99.90;;;;;;5100623;27;20035;-78
2022/03/14 01:20:22;;;;;;;11.57;7.00;;;9.30;99.90;;;;;;5104932;27;20049;-79
2022/03/14 01:22:48;;;;;;;10.30;6.67;;;9.30;99.90;;;;;;5119871;27;20101;-79
2022/03/14 01:25:13;;;;;;;10.13;7.40;;;9.20;99.90;;;;;;5121008;27;20030;-79
2022/03/14 01:27:39;;;;;;;11.27;7.17;;;9.20;99.90;;;;;;5117876;27;20497;-79
2022/03/14 01:30:06;;;;;;;13.73;6.50;;;9.10;99.90;;;;;;5135483;27;20058;-79
2022/03/14 01:32:31;;;;;;;10.23;6.50;;;9.10;99.90;;;;;;5116237;27;20076;-79
2022/03/14 01:34:57;;;;;;;10.43;6.60;;;9.10;99.90;;;;;;5101943;27;20039;-79
2022/03/14 01:37:23;;;;;;;10.03;6.40;;;9.00;99.90;;;;;;5117827;27;20546;-78
2022/03/14 01:39:49;;;;;;;8.73;6.47;;;9.10;99.90;;;;;;5100267;27;20122;-78
2022/03/14 01:42:17;;;;;;;9.83;6.20;;;9.10;99.90;;;;;;5097092;27;20498;-78
2022/03/14 01:44:43;;;;;;;9.77;6.50;;;9.10;99.90;;;;;;5118008;27;20061;-79
2022/03/14 01:47:09;;;;;;;8.67;6.50;;;9.10;99.90;;;;;;5135404;27;20574;-79
2022/03/14 01:49:35;;;;;;;10.37;6.97;;;9.20;99.90;;;;;;5097147;27;20071;-79
2022/03/14 01:52:00;;;;;;;8.80;6.50;;;9.10;99.90;;;;;;5079399;27;20041;-79
2022/03/14 01:54:26;;;;;;;8.73;6.20;;;9.10;99.90;;;;;;5100541;27;20604;-79
2022/03/14 01:56:53;;;;;;;10.53;6.53;;;9.00;99.90;;;;;;5099440;27;20110;-80
2022/03/14 01:59:20;;;;;;;9.93;6.47;;;9.10;99.90;;;;;;5118825;27;20049;-79
2022/03/14 02:01:46;;;;;;;9.33;6.73;;;9.10;99.90;;;;;;5096083;27;20047;-78
2022/03/14 02:04:12;;;;;;;9.17;6.67;;;9.10;99.90;;;;;;5114089;27;20067;-79
2022/03/14 02:06:39;;;;;;;8.90;6.30;;;9.00;99.90;;;;;;5099566;27;20103;-79
2022/03/14 02:09:05;;;;;;;9.87;6.43;;;9.00;99.90;;;;;;5117834;27;20054;-78
2022/03/14 02:11:31;;;;;;;8.37;6.40;;;8.90;99.90;;;;;;5117865;27;20035;-78
2022/03/14 02:13:56;;;;;;;8.23;6.00;;;8.90;99.90;;;;;;5095885;27;20127;-78
2022/03/14 02:16:22;;;;;;;7.73;5.97;;;8.90;99.90;;;;;;5132137;27;20059;-78
2022/03/14 02:18:48;;;;;;;9.10;5.80;;;8.90;99.90;;;;;;5133529;27;20046;-78
2022/03/14 02:21:13;;;;;;;7.20;5.37;;;9.00;99.90;;;;;;5082360;27;20486;-78
2022/03/14 02:23:40;;;;;;;7.60;5.87;;;9.00;99.90;;;;;;5136783;27;20084;-78
2022/03/14 02:26:06;;;;;;;7.47;5.70;;;9.00;99.90;;;;;;5134531;27;20578;-79
2022/03/14 02:28:32;;;;;;;9.33;5.90;;;9.00;99.90;;;;;;5134942;27;20050;-79
2022/03/14 02:30:58;;;;;;;7.17;5.40;;;9.00;99.90;;;;;;5139792;27;20110;-79
2022/03/14 02:33:24;;;;;;;8.50;5.27;;;9.00;99.90;;;;;;5138500;27;20035;-78
2022/03/14 02:35:49;;;;;;;8.00;5.43;;;9.00;99.90;;;;;;5123777;27;20072;-78
2022/03/14 02:38:16;;;;;;;6.00;4.70;;;9.00;99.90;;;;;;5099415;27;20933;-78
2022/03/14 02:40:47;;;;;;;5.73;4.30;;;9.00;99.90;;;;;;5100004;27;20130;-78
2022/03/14 02:43:16;;;;;;;7.97;5.40;;;9.10;99.90;;;;;;5134279;27;20047;-78
2022/03/14 02:45:43;;;;;;;6.37;4.80;;;9.10;99.90;;;;;;5100453;27;20043;-78
2022/03/14 02:48:10;;;;;;;7.40;4.90;;;9.10;99.90;;;;;;5120503;27;20042;-78
2022/03/14 02:50:39;;;;;;;6.97;5.30;;;9.20;99.90;;;;;;5121400;27;20042;-78
2022/03/14 02:53:04;;;;;;;6.07;4.77;;;9.10;99.90;;;;;;5122078;27;20129;-78
2022/03/14 02:55:30;;;;;;;7.13;4.53;;;9.20;99.90;;;;;;5101871;27;20081;-79
2022/03/14 02:57:58;;;;;;;5.73;4.50;;;9.20;99.90;;;;;;5105407;27;20039;-78
2022/03/14 03:00:24;;;;;;;5.80;4.80;;;9.20;99.90;;;;;;5122160;27;20895;-78
2022/03/14 03:02:50;;;;;;;5.47;4.40;;;9.20;99.90;;;;;;5140999;27;20124;-78
2022/03/14 03:05:16;;;;;;;7.27;4.50;;;9.20;99.90;;;;;;5119021;27;20612;-78
2022/03/14 03:07:42;;;;;;;6.50;4.20;;;9.20;99.90;;;;;;5104236;27;20203;-80
2022/03/14 03:10:09;;;;;;;6.60;4.50;;;9.20;99.90;;;;;;5083512;27;20043;-78
2022/03/14 03:12:37;;;;;;;6.80;4.70;;;9.20;99.90;;;;;;5099024;27;20042;-78
2022/03/14 03:15:04;;;;;;;4.77;4.27;;;9.20;99.90;;;;;;5095826;27;20043;-79
2022/03/14 03:17:30;;;;;;;6.93;5.00;;;9.10;99.90;;;;;;5120293;27;20126;-79
2022/03/14 03:19:55;;;;;;;6.07;4.20;;;9.10;99.90;;;;;;5102127;27;20074;-78
2022/03/14 03:22:21;;;;;;;6.73;4.60;;;9.10;99.90;;;;;;5120413;27;20053;-79
2022/03/14 03:24:47;;;;;;;6.13;4.47;;;9.10;99.90;;;;;;5139539;27;20110;-79
2022/03/14 03:27:12;;;;;;;5.57;4.23;;;9.10;99.90;;;;;;5106371;27;20035;-78
2022/03/14 03:29:38;;;;;;;5.93;4.33;;;9.10;99.90;;;;;;5101284;27;20039;-78
2022/03/14 03:32:04;;;;;;;5.10;4.10;;;9.10;99.90;;;;;;5086024;27;20058;-80
2022/03/14 03:34:30;;;;;;;6.97;4.50;;;9.10;99.90;;;;;;5120819;27;20042;-79
2022/03/14 03:36:55;;;;;;;4.63;4.00;;;9.20;99.90;;;;;;5136618;27;20031;-79
2022/03/14 03:39:21;;;;;;;5.60;4.07;;;9.10;99.90;;;;;;5099296;27;20095;-79
2022/03/14 03:41:47;;;;;;;5.90;4.47;;;9.10;99.90;;;;;;5083624;27;20069;-79
2022/03/14 03:44:13;;;;;;;4.77;3.90;;;9.20;99.90;;;;;;5105616;27;20034;-79
2022/03/14 03:46:38;;;;;;;5.13;3.87;;;9.10;99.90;;;;;;5120481;27;20034;-79
2022/03/14 03:49:04;;;;;;;4.50;4.07;;;9.10;99.90;;;;;;5096665;27;20099;-79
2022/03/14 03:51:30;;;;;;;4.73;4.20;;;9.10;99.90;;;;;;5116735;27;20054;-79
2022/03/14 03:53:55;;;;;;;7.23;4.77;;;9.10;99.90;;;;;;5131759;27;20035;-79
2022/03/14 03:56:21;;;;;;;5.87;4.20;;;9.10;99.90;;;;;;5079127;27;20064;-78
2022/03/14 03:58:47;;;;;;;4.87;3.80;;;9.10;99.90;;;;;;5117499;27;20043;-78
2022/03/14 04:01:21;;;;;;;4.70;3.97;;;9.10;99.90;;;;;;5081535;27;20055;-78
2022/03/14 04:03:49;;;;;;;5.00;4.13;;;9.10;99.90;;;;;;5137061;27;20107;-79
2022/03/14 04:06:19;;;;;;;6.80;4.43;;;9.10;99.90;;;;;;5098499;27;20046;-79
2022/03/14 04:08:46;;;;;;;4.90;3.97;;;9.00;99.90;;;;;;5133277;27;20051;-78
2022/03/14 04:11:12;;;;;;;5.60;3.70;;;9.00;99.90;;;;;;5117063;27;20089;-79
2022/03/14 04:13:38;;;;;;;5.37;4.07;;;8.90;99.90;;;;;;5082837;27;20051;-79
2022/03/14 04:16:04;;;;;;;4.57;3.90;;;9.00;99.90;;;;;;5095968;27;20315;-78
2022/03/14 04:18:30;;;;;;;4.53;3.40;;;9.00;99.90;;;;;;5115834;27;20039;-79
2022/03/14 04:20:57;;;;;;;4.13;3.40;;;9.00;99.90;;;;;;5117744;27;20114;-79
2022/03/14 04:23:23;;;;;;;8.10;3.53;;;9.10;99.90;;;;;;5115773;27;20564;-79
2022/03/14 04:25:49;;;;;;;7.60;3.83;;;9.10;99.90;;;;;;5134290;27;20610;-79
2022/03/14 04:28:16;;;;;;;4.40;3.63;;;9.10;99.90;;;;;;5132861;27;20502;-78
2022/03/14 04:30:42;;;;;;;4.90;3.63;;;9.10;99.90;;;;;;5133358;27;20039;-78
2022/03/14 04:33:08;;;;;;;5.37;3.90;;;9.10;99.90;;;;;;5130300;27;20074;-78
2022/03/14 04:35:35;;;;;;;4.87;3.53;;;9.10;99.90;;;;;;5116682;27;20080;-78
2022/03/14 04:38:02;;;;;;;4.30;3.27;;;9.10;99.90;;;;;;5133061;27;20042;-78
2022/03/14 04:40:28;;;;;;;4.70;3.40;;;9.10;99.90;;;;;;5115834;27;20054;-78
2022/03/14 04:42:54;;;;;;;4.77;3.53;;;9.10;99.90;;;;;;5115201;27;20042;-79
2022/03/14 04:45:20;;;;;;;4.20;3.50;;;9.10;99.90;;;;;;5098667;27;20054;-78
2022/03/14 04:47:45;;;;;;;6.33;3.90;;;9.10;99.90;;;;;;5114529;27;20046;-78
2022/03/14 04:50:11;;;;;;;4.77;3.50;;;9.10;99.90;;;;;;5115126;27;20047;-78
2022/03/14 04:52:39;;;;;;;4.57;3.50;;;9.20;99.90;;;;;;5081855;27;20129;-77
2022/03/14 04:55:05;;;;;;;5.40;4.10;;;9.20;99.90;;;;;;5132367;27;20035;-76
2022/03/14 04:57:31;;;;;;;4.00;3.60;;;9.10;99.90;;;;;;5097550;27;20075;-77
2022/03/14 04:59:57;;;;;;;5.10;3.60;;;9.20;99.90;;;;;;5114482;27;20055;-77
2022/03/14 05:02:23;;;;;;;5.80;3.93;;;9.20;99.90;;;;;;5073773;28;20032;-77
2022/03/14 05:04:50;;;;;;;4.60;4.10;;;9.20;99.90;;;;;;5133959;27;20133;-77
2022/03/14 05:07:16;;;;;;;4.63;3.77;;;9.10;99.90;;;;;;5116413;27;20043;-77
2022/03/14 05:09:42;;;;;;;4.40;3.50;;;9.10;99.90;;;;;;5114776;27;20129;-77
2022/03/14 05:12:08;;;;;;;6.27;4.07;;;9.10;99.90;;;;;;5094790;27;20070;-77
2022/03/14 05:14:34;;;;;;;4.63;3.83;;;9.10;99.90;;;;;;5114880;27;20639;-77
2022/03/14 05:17:00;;;;;;;6.10;4.20;;;9.10;99.90;;;;;;5112560;28;20044;-77
2022/03/14 05:19:26;;;;;;;5.00;3.53;;;9.10;99.90;;;;;;5117115;27;20043;-77
2022/03/14 05:21:52;;;;;;;4.27;3.67;;;9.10;99.90;;;;;;5114323;27;20066;-77
2022/03/14 05:24:17;;;;;;;6.80;4.67;;;9.10;99.90;;;;;;5095090;28;20483;-77
2022/03/14 05:26:43;;;;;;;5.43;4.13;;;9.10;99.90;;;;;;5075386;28;20044;-77
2022/03/14 05:29:12;;;;;;;6.50;4.33;;;9.10;99.90;;;;;;5116945;28;20043;-77
2022/03/14 05:31:38;;;;;;;5.53;3.90;;;9.10;99.90;;;;;;5113499;28;20072;-77
2022/03/14 05:34:04;;;;;;;5.73;4.00;;;9.10;99.90;;;;;;5116607;28;20116;-77
2022/03/14 05:36:30;;;;;;;5.70;4.13;;;9.10;99.90;;;;;;5114175;28;20047;-78
2022/03/14 05:38:55;;;;;;;5.73;4.40;;;9.10;99.90;;;;;;5133823;28;20074;-77
2022/03/14 05:41:21;;;;;;;5.47;4.27;;;9.10;99.90;;;;;;5133088;28;20027;-78
2022/03/14 05:43:47;;;;;;;7.33;5.27;;;9.10;99.90;;;;;;5088653;28;20031;-77
2022/03/14 05:46:13;;;;;;;11.77;7.70;;;9.10;99.90;;;;;;5134227;28;20070;-77
2022/03/14 05:48:38;;;;;;;13.93;9.10;;;9.10;99.90;;;;;;5130795;27;20056;-77
2022/03/14 05:51:07;;;;;;;16.07;9.50;;;9.00;99.90;;;;;;5104558;27;20051;-79
2022/03/14 05:53:33;;;;;;;9.57;6.23;;;9.00;99.90;;;;;;5136593;27;20039;-77
2022/03/14 05:55:59;;;;;;;10.17;6.60;;;9.00;99.90;;;;;;5136306;27;20041;-78
2022/03/14 05:58:24;;;;;;;10.83;7.27;;;9.00;99.90;;;;;;5114859;27;20134;-78
2022/03/14 06:00:52;;;;;;;15.47;10.77;;;9.00;99.90;;;;;;5085768;27;20047;-77
2022/03/14 06:03:20;;;;;;;17.57;11.60;;;9.00;99.90;;;;;;5135779;27;20114;-77
2022/03/14 06:05:49;;;;;;;9.87;7.33;;;9.00;99.90;;;;;;5103335;27;20508;-77
2022/03/14 06:08:18;;;;;;;9.13;6.80;;;9.00;99.90;;;;;;5140326;27;20039;-78
2022/03/14 06:10:46;;;;;;;8.33;6.10;;;8.90;99.90;;;;;;5121390;27;20060;-78
2022/03/14 06:13:15;;;;;;;7.87;5.67;;;9.00;99.90;;;;;;5139895;27;20078;-77
2022/03/14 06:15:42;;;;;;;7.23;5.73;;;9.00;99.90;;;;;;5119142;27;20042;-77
2022/03/14 06:18:08;;;;;;;9.37;5.57;;;9.00;99.90;;;;;;5135508;27;20079;-78
2022/03/14 06:20:34;;;;;;;7.03;6.20;;;8.90;99.90;;;;;;5141837;27;20808;-78
2022/03/14 06:23:00;;;;;;;8.93;5.70;;;8.90;99.90;;;;;;5119655;27;20103;-77
2022/03/14 06:25:26;;;;;;;7.90;5.57;;;8.90;99.90;;;;;;5140471;27;20047;-78
2022/03/14 06:27:52;;;;;;;7.03;5.47;;;8.90;99.90;;;;;;5098863;27;20046;-78
2022/03/14 06:30:19;;;;;;;7.57;5.40;;;8.90;99.90;;;;;;5119699;27;20039;-78
2022/03/14 06:32:47;;;;;;;7.63;4.83;;;8.90;99.90;;;;;;5121899;27;20054;-78
2022/03/14 06:35:14;;;;;;;8.27;6.13;;;8.90;99.90;;;;;;5138381;27;20039;-78
2022/03/14 06:37:40;;;;;;;9.47;6.70;;;8.90;99.90;;;;;;5120402;27;20513;-79
2022/03/14 06:40:06;;;;;;;9.47;7.40;;;8.90;99.90;;;;;;5119331;27;20047;-79
2022/03/14 06:42:32;;;;;;;9.90;7.23;;;8.90;99.90;;;;;;5123448;27;20035;-78
2022/03/14 06:45:03;;;;;;;9.30;6.30;;;8.90;99.90;;;;;;5119049;27;20065;-79
2022/03/14 06:47:29;;;;;;;7.13;5.70;;;8.90;99.90;;;;;;5139537;27;20038;-79
2022/03/14 06:49:55;;;;;;;8.97;6.70;;;8.80;99.90;;;;;;5122259;27;20078;-80
2022/03/14 06:52:20;;;;;;;9.13;6.30;;;8.80;99.90;;;;;;5098676;27;20054;-77
2022/03/14 06:54:46;;;;;;;9.97;6.50;;;8.90;99.90;;;;;;5083583;27;20043;-79
2022/03/14 06:57:12;;;;;;;9.60;6.23;;;8.90;99.90;;;;;;5122249;27;20047;-77
2022/03/14 06:59:38;;;;;;;8.53;6.20;;;8.80;99.90;;;;;;5120024;27;20035;-76
2022/03/14 07:02:04;;;;;;;8.50;5.87;;;8.80;99.90;;;;;;5121849;27;20038;-77
2022/03/14 07:04:31;;;;;;;9.37;6.17;;;8.80;99.90;;;;;;5118728;27;20049;-76
2022/03/14 07:06:59;;;;;;;8.20;6.10;;;8.80;99.90;;;;;;5136006;27;20111;-76
2022/03/14 07:09:24;;;;;;;9.17;6.77;;;8.80;99.90;;;;;;5120260;27;20054;-77
2022/03/14 07:11:51;;;;;;;8.47;6.70;;;8.80;99.90;;;;;;5103643;27;20084;-76
2022/03/14 07:14:21;;;;;;;11.40;7.87;;;8.90;99.90;;;;;;5088704;27;20115;-76
2022/03/14 07:16:47;;;;;;;12.17;8.63;;;8.80;99.90;;;;;;5099534;27;20093;-76
2022/03/14 07:19:13;;;;;;;11.90;7.73;;;8.90;99.90;;;;;;5137856;27;20045;-77
2022/03/14 07:21:39;;;;;;;11.17;7.33;;;8.90;99.90;;;;;;5101123;27;20058;-77
2022/03/14 07:24:06;;;;;;;13.10;8.30;;;8.90;99.90;;;;;;5098904;27;20139;-76
2022/03/14 07:26:31;;;;;;;14.20;8.47;;;8.90;99.90;;;;;;5089655;27;20043;-77
2022/03/14 07:28:57;;;;;;;12.73;8.03;;;8.90;99.90;;;;;;5117947;27;20035;-76
2022/03/14 07:31:24;;;;;;;14.23;8.33;;;8.90;99.90;;;;;;5083259;27;20522;-77
2022/03/14 07:33:51;;;;;;;16.40;8.63;;;8.90;99.90;;;;;;5119842;27;20066;-76
2022/03/14 07:36:17;;;;;;;13.23;8.50;;;9.00;99.90;;;;;;5122662;27;20039;-76
2022/03/14 07:38:44;;;;;;;12.47;8.00;;;8.90;99.90;;;;;;5103429;27;20061;-77
2022/03/14 07:41:10;;;;;;;12.80;8.17;;;8.90;99.90;;;;;;5113569;27;20050;-77
2022/03/14 07:43:37;;;;;;;14.93;8.40;;;8.90;99.90;;;;;;5133733;27;20039;-75
2022/03/14 07:46:03;;;;;;;10.93;8.10;;;8.90;99.90;;;;;;5131818;27;20042;-76
2022/03/14 07:48:28;;;;;;;13.80;8.53;;;8.90;99.90;;;;;;5130524;27;20057;-77
2022/03/14 07:50:54;;;;;;;11.97;8.60;;;8.90;99.90;;;;;;5130884;27;20043;-76
2022/03/14 07:53:20;;;;;;;10.73;7.53;;;8.90;99.90;;;;;;5095031;27;20127;-75
2022/03/14 07:55:46;;;;;;;9.90;7.67;;;8.90;99.90;;;;;;5098864;27;20054;-76
2022/03/14 07:58:12;;;;;;;12.03;7.83;;;8.90;99.90;;;;;;5097405;27;20053;-76
2022/03/14 08:00:38;;;;;;;11.53;8.53;;;8.90;99.90;;;;;;5131248;27;20035;-76
2022/03/14 08:03:04;;;;;;;12.70;7.73;;;9.00;99.90;;;;;;5113953;27;20050;-76
2022/03/14 08:05:30;;;;;;;11.37;8.27;;;9.00;99.90;;;;;;5129991;27;20327;-76
2022/03/14 08:07:56;;;;;;;11.03;8.10;;;9.00;99.90;;;;;;5114220;27;20055;-76
2022/03/14 08:10:22;;;;;;;12.03;8.83;;;9.00;99.90;;;;;;5129998;27;20085;-76
2022/03/14 08:12:58;;;;;;;11.43;8.10;;;9.00;99.90;;;;;;5127625;27;20064;-77
2022/03/14 08:15:28;;;;;;;12.37;8.47;;;9.10;99.90;;;;;;5096321;27;20161;-78
2022/03/14 08:17:56;;;;;;;20.53;11.27;;;9.10;99.90;;;;;;5130203;27;20454;-76
2022/03/14 08:20:23;;;;;;;18.23;9.57;;;9.10;99.90;;;;;;5130066;27;20066;-77
2022/03/14 08:22:49;;;;;;;18.73;11.07;;;9.10;99.90;;;;;;5112796;27;20031;-77
2022/03/14 08:25:15;;;;;;;16.00;10.40;;;9.10;99.90;;;;;;5131754;27;20043;-76
2022/03/14 08:27:41;;;;;;;16.10;9.27;;;9.10;99.90;;;;;;5112251;27;20598;-76
2022/03/14 08:30:08;;;;;;;14.27;9.23;;;9.10;99.90;;;;;;5130934;27;20047;-76
2022/03/14 08:32:34;;;;;;;12.83;8.87;;;9.20;99.90;;;;;;5129706;27;20575;-76
2022/03/14 08:35:07;;;;;;;13.97;9.03;;;9.20;99.90;;;;;;5113629;27;20059;-76
2022/03/14 08:37:38;;;;;;;13.50;8.60;;;9.30;99.90;;;;;;5112041;27;20565;-77
2022/03/14 08:40:07;;;;;;;17.23;10.87;;;9.30;99.90;;;;;;5130066;27;20043;-77
2022/03/14 08:42:33;;;;;;;16.33;9.87;;;9.30;99.90;;;;;;5113122;27;20099;-77
2022/03/14 08:44:58;;;;;;;12.83;9.20;;;9.30;99.90;;;;;;5113164;27;20088;-77
2022/03/14 08:47:25;;;;;;;11.27;7.93;;;9.30;99.90;;;;;;5113308;27;20042;-77
2022/03/14 08:49:51;;;;;;;11.47;8.70;;;9.30;99.90;;;;;;5113007;27;20081;-76
2022/03/14 08:52:16;;;;;;;15.80;9.63;;;9.30;99.90;;;;;;5129762;27;20074;-77
2022/03/14 08:54:42;;;;;;;12.40;9.20;;;9.30;99.90;;;;;;5096574;27;20051;-76
2022/03/14 08:57:09;;;;;;;13.80;9.10;;;9.30;99.90;;;;;;5129408;27;20039;-76
2022/03/14 08:59:35;;;;;;;14.50;10.13;;;9.30;99.90;;;;;;5112987;27;20084;-77
2022/03/14 09:02:01;;;;;;;13.87;9.80;;;9.30;99.90;;;;;;5112587;27;20423;-76
2022/03/14 09:04:27;;;;;;;14.07;10.33;;;9.30;99.90;;;;;;5113066;27;20058;-76
2022/03/14 09:06:52;;;;;;;14.40;10.57;;;9.30;99.90;;;;;;5078928;27;20465;-76
2022/03/14 09:09:18;;;;;;;14.70;9.53;;;9.30;99.90;;;;;;5112165;27;20050;-77
2022/03/14 09:11:45;;;;;;;12.47;9.50;;;9.30;99.90;;;;;;5112023;27;20082;-77
2022/03/14 09:14:11;;;;;;;14.33;10.13;;;9.30;99.90;;;;;;5128150;27;20628;-76
2022/03/14 09:16:37;;;;;;;14.13;10.33;;;9.30;99.90;;;;;;5112578;27;20084;-77
2022/03/14 09:19:03;;;;;;;14.43;9.73;;;9.30;99.90;;;;;;5129336;27;20055;-76
2022/03/14 09:21:32;;;;;;;13.97;9.90;;;9.30;99.90;;;;;;5112188;27;20094;-76
2022/03/14 09:23:58;;;;;;;14.47;10.17;;;9.30;99.90;;;;;;5111945;27;20431;-77
2022/03/14 09:26:24;;;;;;;16.43;11.20;;;9.30;99.90;;;;;;5125774;27;20047;-75
2022/03/14 09:28:50;;;;;;;15.87;10.67;;;9.40;99.90;;;;;;5077028;27;20066;-77
2022/03/14 09:31:16;;;;;;;14.90;10.47;;;9.40;99.90;;;;;;5127734;27;20055;-77
2022/03/14 09:33:42;;;;;;;15.30;11.23;;;9.40;99.90;;;;;;5110915;28;20035;-76
2022/03/14 09:36:08;;;;;;;16.13;10.70;;;9.40;99.90;;;;;;5127331;28;20479;-76
2022/03/14 09:38:34;;;;;;;19.03;12.13;;;9.40;99.90;;;;;;5128886;27;20039;-75
2022/03/14 09:41:04;;;;;;;15.10;10.60;;;9.50;99.90;;;;;;5132346;27;20053;-75
2022/03/14 09:43:32;;;;;;;16.87;11.10;;;9.50;99.90;;;;;;5132235;27;20051;-76
2022/03/14 09:46:01;;;;;;;20.23;11.97;;;9.40;99.90;;;;;;5116560;27;20505;-76
2022/03/14 09:48:28;;;;;;;17.47;11.77;;;9.40;99.90;;;;;;5132065;27;20051;-76
2022/03/14 09:50:54;;;;;;;19.60;12.33;;;9.40;99.90;;;;;;5132705;27;20055;-76
2022/03/14 09:53:21;;;;;;;16.83;11.80;;;9.40;99.90;;;;;;5114339;27;20055;-76
2022/03/14 09:55:48;;;;;;;21.70;13.00;;;9.40;99.90;;;;;;5115407;27;20127;-76
2022/03/14 09:58:18;;;;;;;18.47;12.87;;;9.40;99.90;;;;;;5132774;27;20055;-76
2022/03/14 10:00:46;;;;;;;19.93;12.77;;;9.40;99.90;;;;;;5098348;27;20055;-76
2022/03/14 10:03:13;;;;;;;20.33;13.27;;;9.40;99.90;;;;;;5132695;27;20073;-76
2022/03/14 10:05:40;;;;;;;19.73;13.10;;;9.40;99.90;;;;;;5133008;27;20083;-76
2022/03/14 10:08:07;;;;;;;23.07;14.60;;;9.40;99.90;;;;;;5114102;27;20146;-75
2022/03/14 10:10:35;;;;;;;21.87;13.13;;;9.30;99.90;;;;;;5133746;27;20043;-77
2022/03/14 10:13:01;;;;;;;21.47;13.93;;;9.30;99.90;;;;;;5134733;27;20043;-76
2022/03/14 10:15:27;;;;;;;20.00;13.20;;;9.30;99.90;;;;;;5133724;27;21045;-76
2022/03/14 10:17:54;;;;;;;20.63;13.03;;;9.30;99.90;;;;;;5114748;27;20622;-76
2022/03/14 10:20:21;;;;;;;22.23;13.40;;;9.30;99.90;;;;;;5115436;27;20055;-75
2022/03/14 10:22:48;;;;;;;21.03;12.77;;;9.30;99.90;;;;;;5131270;27;20043;-76
2022/03/14 10:25:19;;;;;;;22.13;12.97;;;9.30;99.90;;;;;;5132598;27;20664;-77
2022/03/14 10:27:54;;;;;;;21.20;13.37;;;9.20;99.90;;;;;;5114581;27;20051;-76
2022/03/14 10:30:27;;;;;;;24.87;13.13;;;9.20;99.90;;;;;;5115101;27;20046;-75
2022/03/14 10:33:08;;;;;;;20.27;11.90;;;9.20;99.90;;;;;;5131119;27;20047;-77
2022/03/14 10:35:36;;;;;;;19.33;11.20;;;9.20;99.90;;;;;;5114381;27;20384;-76
2022/03/14 10:38:06;;;;;;;20.47;11.43;;;9.20;99.90;;;;;;5132599;27;20080;-76
2022/03/14 10:40:35;;;;;;;21.17;11.43;;;9.20;99.90;;;;;;5132189;27;20039;-78
2022/03/14 10:43:01;;;;;;;23.33;11.47;;;9.20;99.90;;;;;;5113993;27;20039;-77
2022/03/14 10:45:31;;;;;;;21.63;12.00;;;9.30;99.90;;;;;;5097857;27;20641;-77
2022/03/14 10:47:58;;;;;;;24.07;11.60;;;9.30;99.90;;;;;;5113843;27;20050;-76
2022/03/14 10:50:43;;;;;;;23.10;12.00;;;9.30;99.90;;;;;;5113902;27;20073;-76
2022/03/14 10:53:27;;;;;;;22.90;12.13;;;9.30;99.90;;;;;;5131822;27;20054;-76
2022/03/14 10:55:59;;;;;;;24.47;12.47;;;9.30;99.90;;;;;;5131740;27;20624;-76
2022/03/14 10:58:33;;;;;;;25.97;12.90;;;9.30;99.90;;;;;;5131111;27;20598;-76
2022/03/14 11:01:05;;;;;;;27.47;13.80;;;9.40;99.90;;;;;;5129935;27;20027;-77
2022/03/14 11:03:42;;;;;;;24.53;13.50;;;9.50;99.90;;;;;;5148173;27;20043;-76
2022/03/14 11:06:10;;;;;;;26.63;12.80;;;9.60;99.90;;;;;;5114204;27;20043;-76
2022/03/14 11:08:50;;;;;;;25.20;12.97;;;9.70;99.90;;;;;;5113152;27;20043;-77
2022/03/14 11:11:19;;;;;;;26.20;13.27;;;9.70;99.90;;;;;;5131329;27;20627;-76
2022/03/14 11:13:47;;;;;;;26.53;13.57;;;9.80;99.90;;;;;;5130084;27;20094;-76
2022/03/14 11:16:30;;;;;;;25.90;12.40;;;9.90;99.90;;;;;;5129913;27;20055;-76
2022/03/14 11:18:57;;;;;;;23.88;12.20;;;9.90;99.90;;;;;;5129330;27;20072;-76
2022/03/14 11:21:25;;;;;;;24.93;12.83;;;9.90;99.90;;;;;;5113278;27;20076;-76
2022/03/14 11:23:53;;;;;;;23.97;12.50;;;10.00;99.90;;;;;;5130814;27;20514;-76
2022/03/14 11:26:25;;;;;;;23.87;12.00;;;10.00;99.90;;;;;;5113711;27;20043;-82
2022/03/14 11:28:51;;;;;;;;;;;10.00;99.90;;;;;;5130842;27;20039;-78
2022/03/14 11:31:19;;;;;;;22.73;11.13;;;10.00;99.90;;;;;;5111625;27;20520;-77
2022/03/14 11:33:46;;;;;;;23.03;11.27;;;10.00;99.90;;;;;;5130315;27;20100;-76
2022/03/14 11:36:12;;;;;;;25.23;11.40;;;10.00;99.90;;;;;;5096341;27;20283;-76
2022/03/14 11:38:38;;;;;;;21.57;11.20;;;9.90;99.90;;;;;;5112742;27;20035;-76
2022/03/14 11:41:04;;;;;;;23.23;11.40;;;9.90;99.90;;;;;;5130476;27;20035;-76
2022/03/14 11:43:31;;;;;;;24.97;11.63;;;9.80;99.90;;;;;;5129840;27;20043;-76
2022/03/14 11:46:02;;;;;;;21.70;10.93;;;9.80;99.90;;;;;;5130350;27;20043;-76
2022/03/14 11:48:33;;;;;;;23.93;11.10;;;9.80;99.90;;;;;;5112870;27;20071;-76
2022/03/14 11:51:06;;;;;;;25.77;11.00;;;9.80;99.90;;;;;;5130336;27;20078;-76
2022/03/14 11:53:36;;;;;;;20.80;9.83;;;9.70;99.90;;;;;;5113113;27;20043;-76
2022/03/14 11:56:07;;;;;;;20.87;10.13;;;9.70;99.90;;;;;;5128685;27;20050;-76
2022/03/14 11:58:41;;;;;;;22.87;10.37;;;9.70;99.90;;;;;;5113634;27;20043;-76
2022/03/14 12:01:13;;;;;;;22.50;11.07;;;9.70;99.90;;;;;;5127583;27;20039;-76
2022/03/14 12:03:42;;;;;;;;;;;9.70;99.90;;;;;;5131177;27;20058;-76
2022/03/14 12:06:08;;;;;;;28.60;13.23;;;9.60;99.90;;;;;;5132641;27;19968;-75
2022/03/14 12:08:36;;;;;;;25.83;13.67;;;9.70;99.90;;;;;;5097870;27;20043;-76
2022/03/14 12:11:27;;;;;;;24.63;14.00;;;9.80;99.90;;;;;;5134025;27;20110;-76
2022/03/14 12:13:53;;;;;;;29.37;14.07;;;9.80;99.90;;;;;;5114986;27;20130;-77
2022/03/14 12:16:41;;;;;;;25.30;14.97;;;9.80;99.90;;;;;;5116795;27;20130;-77
2022/03/14 12:19:30;;;;;;;27.17;14.80;;;9.90;99.90;;;;;;5131954;27;20044;-77
2022/03/14 12:22:01;;;;;;;24.87;13.97;;;9.90;99.90;;;;;;5119676;27;20043;-76
2022/03/14 12:24:44;;;;;;;29.67;15.23;;;9.90;99.90;;;;;;5127278;27;20043;-76
2022/03/14 12:27:30;;;;;;;29.10;15.67;;;9.90;99.90;;;;;;5113386;27;20039;-76
2022/03/14 12:29:58;;;;;;;29.90;15.77;;;9.90;99.90;;;;;;5108162;27;20061;-76
2022/03/14 12:32:36;;;;;;;26.20;15.00;;;10.00;99.90;;;;;;5121219;27;20077;-75
2022/03/14 12:35:12;;;;;;;27.20;13.67;;;10.10;99.90;;;;;;5134064;27;20043;-76
2022/03/14 12:37:39;;;;;;;25.90;15.07;;;10.10;99.90;;;;;;5131220;27;20035;-77
2022/03/14 12:40:26;;;;;;;24.50;13.50;;;10.10;99.90;;;;;;5112845;27;20039;-76
2022/03/14 12:43:21;;;;;;;29.63;15.23;;;10.10;99.90;;;;;;5096439;27;20039;-77
2022/03/14 12:45:51;;;;;;;26.50;14.77;;;10.10;99.90;;;;;;5125887;27;20044;-77
2022/03/14 12:48:24;;;;;;;27.47;15.90;;;10.20;99.90;;;;;;5108792;28;20051;-76
2022/03/14 12:50:52;;;;;;;25.80;15.50;;;10.30;99.90;;;;;;5112195;27;20043;-77